createdAt,value
2023-03-11T00:01:00.570Z,62665.36
2023-03-11T00:02:03.472Z,62666.32
2023-03-11T00:03:08.717Z,62662.77
2023-03-11T00:04:11.089Z,62667.00
2023-03-11T00:05:20.009Z,62663.20
2023-03-11T00:06:22.457Z,62661.00
2023-03-11T00:07:24.766Z,62658.83
2023-03-11T00:08:27.166Z,62660.88
2023-03-11T00:09:29.049Z,62661.14
2023-03-11T00:10:34.351Z,62658.83
2023-03-11T00:11:37.225Z,62660.32
2023-03-11T00:12:39.103Z,62662.10
2023-03-11T00:13:41.033Z,62662.22
2023-03-11T00:14:43.071Z,62657.88
2023-03-11T00:15:48.095Z,62651.49
2023-03-11T00:16:50.204Z,62657.34
2023-03-11T00:17:52.398Z,62655.15
2023-03-11T00:18:54.453Z,62656.11
2023-03-11T00:19:56.344Z,62658.30
2023-03-11T00:20:59.293Z,62664.15
2023-03-11T00:22:02.341Z,62660.46
2023-03-11T00:23:06.571Z,62657.06
2023-03-11T00:24:09.119Z,62658.16
2023-03-11T00:25:12.854Z,62662.91
2023-03-11T00:26:15.726Z,62652.30
2023-03-11T00:27:17.658Z,62654.36
2023-03-11T00:28:19.548Z,62655.43
2023-03-11T00:29:21.852Z,62656.11
2023-03-11T00:30:25.395Z,62657.74
2023-03-11T00:31:29.177Z,62659.93
2023-03-11T00:32:31.315Z,62656.11
2023-03-11T00:33:33.348Z,62657.20
2023-03-11T00:34:35.234Z,62654.07
2023-03-11T00:35:37.143Z,62656.25
2023-03-11T00:36:39.248Z,62660.74
2023-03-11T00:37:41.939Z,62654.07
2023-03-11T00:38:43.852Z,62659.37
2023-03-11T00:39:45.975Z,62653.52
2023-03-11T00:40:51.720Z,62652.45
2023-03-11T00:41:53.683Z,62652.98
2023-03-11T00:42:56.700Z,62654.47
2023-03-11T00:43:59.092Z,62657.06
2023-03-11T00:45:00.979Z,62660.20
2023-03-11T00:46:03.253Z,62652.98
2023-03-11T00:47:05.514Z,62656.11
2023-03-11T00:48:08.024Z,62657.62
2023-03-11T00:49:09.914Z,62650.81
2023-03-11T00:50:18.799Z,62659.79
2023-03-11T00:51:20.826Z,62655.29
2023-03-11T00:52:22.806Z,62660.46
2023-03-11T00:53:24.817Z,62657.34
2023-03-11T00:54:27.509Z,62659.93
2023-03-11T00:55:32.769Z,62656.11
2023-03-11T00:56:35.238Z,62660.74
2023-03-11T00:57:37.215Z,62657.74
2023-03-11T00:58:40.172Z,62654.07
2023-03-11T00:59:42.345Z,62655.98
2023-03-11T01:00:44.630Z,62660.20
2023-03-11T01:01:46.679Z,62655.43
2023-03-11T01:02:49.394Z,62659.64
2023-03-11T01:03:51.484Z,62648.23
2023-03-11T01:04:57.112Z,62659.25
2023-03-11T01:05:59.175Z,62659.25
2023-03-11T01:07:02.525Z,62653.40
2023-03-11T01:08:05.230Z,62654.07
2023-03-11T01:09:07.282Z,62654.07
2023-03-11T01:10:11.127Z,62652.30
2023-03-11T01:11:13.209Z,62650.81
2023-03-11T01:12:15.098Z,62653.79
2023-03-11T01:13:16.987Z,62654.07
2023-03-11T01:14:19.404Z,62655.98
2023-03-11T01:15:25.276Z,62651.89
2023-03-11T01:16:27.518Z,62652.30
2023-03-11T01:17:30.522Z,62651.89
2023-03-11T01:18:32.414Z,62655.57
2023-03-11T01:19:34.394Z,62656.52
2023-03-11T01:20:37.840Z,62648.63
2023-03-11T01:21:40.282Z,62657.06
2023-03-11T01:22:42.796Z,62653.52
2023-03-11T01:23:45.115Z,62653.40
2023-03-11T01:24:46.999Z,62651.77
2023-03-11T01:25:49.107Z,62655.03
2023-03-11T01:26:51.746Z,62659.25
2023-03-11T01:27:53.654Z,62656.78
2023-03-11T01:28:55.786Z,62657.74
2023-03-11T01:29:57.688Z,62654.89
2023-03-11T01:31:02.324Z,62653.40
2023-03-11T01:32:05.842Z,62658.16
2023-03-11T01:34:22.222Z,62657.34
2023-03-11T01:35:27.051Z,62655.98
2023-03-11T01:36:29.199Z,62644.14
2023-03-11T01:37:31.191Z,62649.18
2023-03-11T01:38:33.070Z,62653.14
2023-03-11T01:39:35.175Z,62635.71
2023-03-11T01:40:41.065Z,62637.22
2023-03-11T01:41:43.241Z,62643.61
2023-03-11T01:42:45.397Z,62642.51
2023-03-11T01:43:51.157Z,62643.46
2023-03-11T01:44:53.177Z,62647.14
2023-03-11T01:45:58.872Z,62635.59
2023-03-11T01:47:04.711Z,62630.55
2023-03-11T01:48:10.344Z,62633.81
2023-03-11T01:49:13.984Z,62633.81
2023-03-11T01:50:16.953Z,62632.74
2023-03-11T01:51:43.492Z,62629.48
2023-03-11T01:52:47.079Z,62628.38
2023-03-11T01:53:50.712Z,62626.89
2023-03-11T01:54:52.613Z,62639.54
2023-03-11T01:55:55.222Z,62634.64
2023-03-11T01:56:59.812Z,62626.21
2023-03-11T01:58:05.319Z,62626.49
2023-03-11T01:59:10.529Z,62622.80
2023-03-11T02:00:14.675Z,62620.78
2023-03-11T02:01:20.585Z,62626.61
2023-03-11T02:02:44.326Z,62630.43
2023-03-11T02:03:47.509Z,62626.61
2023-03-11T02:04:50.948Z,62631.78
2023-03-11T02:05:55.357Z,62625.12
2023-03-11T02:06:57.988Z,62627.84
2023-03-11T02:08:00.871Z,62622.69
2023-03-11T02:09:03.158Z,62623.63
2023-03-11T02:10:06.832Z,62622.53
2023-03-11T02:11:15.091Z,62630.43
2023-03-11T02:12:17.571Z,62629.87
2023-03-11T02:13:20.175Z,62621.86
2023-03-11T02:14:23.971Z,62612.35
2023-03-11T02:15:26.359Z,62631.92
2023-03-11T02:16:30.315Z,62630.96
2023-03-11T02:17:36.707Z,62621.44
2023-03-11T02:18:42.841Z,62615.33
2023-03-11T02:20:12.861Z,62623.76
2023-03-11T02:21:22.351Z,62622.27
2023-03-11T02:22:24.940Z,62607.57
2023-03-11T02:23:33.713Z,62617.10
2023-03-11T02:24:45.711Z,62619.68
2023-03-11T02:25:54.317Z,62617.10
2023-03-11T02:27:08.984Z,62616.42
2023-03-11T02:28:13.648Z,62617.52
2023-03-11T02:29:16.229Z,62615.21
2023-03-11T02:30:21.186Z,62608.80
2023-03-11T02:31:25.173Z,62614.11
2023-03-11T02:32:28.579Z,62618.33
2023-03-11T02:33:34.199Z,62605.14
2023-03-11T02:34:38.721Z,62614.11
2023-03-11T02:35:41.268Z,62616.01
2023-03-11T02:36:43.447Z,62620.64
2023-03-11T02:37:49.097Z,62610.04
2023-03-11T02:38:51.183Z,62611.39
2023-03-11T02:39:54.771Z,62616.28
2023-03-11T02:40:59.672Z,62616.01
2023-03-11T02:42:11.850Z,62624.44
2023-03-11T02:43:17.733Z,62615.74
2023-03-11T02:44:19.778Z,62619.01
2023-03-11T02:45:25.284Z,62610.57
2023-03-11T02:46:27.951Z,62621.18
2023-03-11T02:47:30.657Z,62616.01
2023-03-11T02:48:34.368Z,62618.59
2023-03-11T02:49:37.132Z,62619.68
2023-03-11T02:50:40.611Z,62612.74
2023-03-11T02:51:42.756Z,62613.84
2023-03-11T02:52:47.021Z,62621.86
2023-03-11T02:53:52.977Z,62617.22
2023-03-11T02:54:55.036Z,62623.37
2023-03-11T02:55:56.898Z,62618.47
2023-03-11T02:56:58.972Z,62621.44
2023-03-11T02:58:01.002Z,62613.30
2023-03-11T02:59:03.407Z,62616.42
2023-03-11T03:00:07.574Z,62620.64
2023-03-11T03:01:10.957Z,62624.32
2023-03-11T03:02:13.248Z,62627.29
2023-03-11T03:03:15.288Z,62624.32
2023-03-11T03:04:17.525Z,62621.73
2023-03-11T03:05:21.714Z,62617.37
2023-03-11T03:06:25.132Z,62619.01
2023-03-11T03:07:27.438Z,62623.90
2023-03-11T03:08:29.481Z,62619.68
2023-03-11T03:09:32.277Z,62614.25
2023-03-11T03:10:34.389Z,62616.42
2023-03-11T03:11:36.534Z,62619.54
2023-03-11T03:12:38.400Z,62613.16
2023-03-11T03:13:40.296Z,62626.07
2023-03-11T03:14:42.203Z,62620.90
2023-03-11T03:15:44.299Z,62617.52
2023-03-11T03:16:46.544Z,62618.20
2023-03-11T03:17:48.862Z,62619.15
2023-03-11T03:18:50.780Z,62620.78
2023-03-11T03:19:52.645Z,62617.52
2023-03-11T03:20:55.904Z,62617.37
2023-03-11T03:21:57.827Z,62610.99
2023-03-11T03:22:59.697Z,62612.62
2023-03-11T03:24:01.938Z,62620.64
2023-03-11T03:25:05.224Z,62610.57
2023-03-11T03:26:07.555Z,62626.61
2023-03-11T03:27:09.586Z,62619.01
2023-03-11T03:28:13.552Z,62611.11
2023-03-11T03:29:15.541Z,62617.37
2023-03-11T03:30:18.244Z,62616.84
2023-03-11T03:31:20.626Z,62617.79
2023-03-11T03:32:22.687Z,62617.37
2023-03-11T03:33:24.775Z,62614.38
2023-03-11T03:34:26.686Z,62619.01
2023-03-11T03:35:28.725Z,62615.21
2023-03-11T03:36:30.709Z,62618.73
2023-03-11T03:37:35.998Z,62613.30
2023-03-11T03:38:38.341Z,62610.57
2023-03-11T03:39:41.233Z,62608.80
2023-03-11T03:40:47.340Z,62608.68
2023-03-11T03:41:50.465Z,62613.02
2023-03-11T03:42:52.806Z,62607.73
2023-03-11T03:43:57.610Z,62606.63
2023-03-11T03:44:59.869Z,62608.80
2023-03-11T03:46:04.535Z,62608.80
2023-03-11T03:47:07.184Z,62624.18
2023-03-11T03:48:09.454Z,62609.21
2023-03-11T03:49:12.266Z,62600.11
2023-03-11T03:50:15.269Z,62600.52
2023-03-11T03:51:17.735Z,62602.69
2023-03-11T03:52:19.725Z,62604.32
2023-03-11T03:53:22.409Z,62605.42
2023-03-11T03:54:24.794Z,62608.54
2023-03-11T03:55:26.707Z,62598.36
2023-03-11T03:56:28.829Z,62609.63
2023-03-11T03:57:31.502Z,62593.18
2023-03-11T03:58:34.533Z,62601.88
2023-03-11T03:59:36.615Z,62604.46
2023-03-11T04:00:39.029Z,62607.73
2023-03-11T04:01:41.059Z,62602.42
2023-03-11T04:02:43.039Z,62607.05
2023-03-11T04:03:46.501Z,62611.94
2023-03-11T04:04:49.140Z,62609.21
2023-03-11T04:05:51.606Z,62602.42
2023-03-11T04:06:53.801Z,62605.27
2023-03-11T04:07:55.851Z,62598.08
2023-03-11T04:08:57.828Z,62608.54
2023-03-11T04:10:00.840Z,62591.55
2023-03-11T04:11:03.398Z,62596.98
2023-03-11T04:12:06.601Z,62606.91
2023-03-11T04:13:09.016Z,62606.51
2023-03-11T04:14:11.278Z,62610.73
2023-03-11T04:15:13.173Z,62609.21
2023-03-11T04:16:18.962Z,62611.80
2023-03-11T04:17:21.038Z,62613.57
2023-03-11T04:18:23.294Z,62610.99
2023-03-11T04:19:26.347Z,62607.73
2023-03-11T04:20:28.350Z,62608.26
2023-03-11T04:21:31.379Z,62613.57
2023-03-11T04:22:34.167Z,62607.31
2023-03-11T04:23:37.054Z,62613.57
2023-03-11T04:24:39.078Z,62609.36
2023-03-11T04:25:41.201Z,62610.99
2023-03-11T04:26:43.221Z,62611.53
2023-03-11T04:27:45.231Z,62609.21
2023-03-11T04:28:47.385Z,62605.68
2023-03-11T04:29:51.006Z,62607.19
2023-03-11T04:30:53.194Z,62599.98
2023-03-11T04:31:55.364Z,62599.57
2023-03-11T04:32:58.244Z,62600.66
2023-03-11T04:34:00.254Z,62603.79
2023-03-11T04:35:02.646Z,62601.62
2023-03-11T04:36:06.972Z,62598.08
2023-03-11T04:37:09.627Z,62602.83
2023-03-11T04:38:11.621Z,62607.19
2023-03-11T04:39:17.154Z,62608.54
2023-03-11T04:40:19.420Z,62611.27
2023-03-11T04:41:21.440Z,62612.89
2023-03-11T04:42:23.619Z,62606.63
2023-03-11T04:43:26.485Z,62598.62
2023-03-11T04:44:28.472Z,62605.00
2023-03-11T04:45:30.524Z,62600.79
2023-03-11T04:46:32.730Z,62607.05
2023-03-11T04:47:34.771Z,62613.97
2023-03-11T04:48:36.905Z,62613.84
2023-03-11T04:49:38.778Z,62612.48
2023-03-11T04:50:40.767Z,62612.20
2023-03-11T04:51:43.100Z,62617.37
2023-03-11T04:52:46.652Z,62609.21
2023-03-11T04:53:48.585Z,62605.00
2023-03-11T04:54:51.274Z,62597.52
2023-03-11T04:55:58.971Z,62615.21
2023-03-11T04:57:01.003Z,62609.21
2023-03-11T04:58:03.212Z,62620.50
2023-03-11T04:59:05.222Z,62615.89
2023-03-11T05:00:11.144Z,62616.28
2023-03-11T05:01:13.248Z,62620.10
2023-03-11T05:02:15.233Z,62624.02
2023-03-11T05:03:17.326Z,62622.39
2023-03-11T05:04:19.579Z,62631.38
2023-03-11T05:05:21.647Z,62627.70
2023-03-11T05:06:23.865Z,62625.12
2023-03-11T05:07:25.736Z,62629.48
2023-03-11T05:08:27.962Z,62638.57
2023-03-11T05:09:29.861Z,62635.45
2023-03-11T05:10:32.310Z,62638.03
2023-03-11T05:11:34.423Z,62635.45
2023-03-11T05:12:36.497Z,62630.15
2023-03-11T05:13:39.119Z,62640.34
2023-03-11T05:14:41.011Z,62639.39
2023-03-11T05:15:45.460Z,62641.83
2023-03-11T05:16:48.658Z,62647.41
2023-03-11T05:17:50.635Z,62649.46
2023-03-11T05:18:52.615Z,62653.79
2023-03-11T05:19:55.438Z,62654.36
2023-03-11T05:20:58.087Z,62656.11
2023-03-11T05:22:02.315Z,62671.07
2023-03-11T05:23:04.452Z,62661.68
2023-03-11T05:24:06.698Z,62669.70
2023-03-11T05:25:11.950Z,62674.60
2023-03-11T05:26:14.420Z,62669.58
2023-03-11T05:27:16.591Z,62686.30
2023-03-11T05:28:18.457Z,62686.98
2023-03-11T05:29:21.538Z,62689.71
2023-03-11T05:30:24.257Z,62701.00
2023-03-11T05:31:26.301Z,62700.58
2023-03-11T05:32:29.276Z,62691.72
2023-03-11T05:33:31.516Z,62700.17
2023-03-11T05:34:33.691Z,62706.28
2023-03-11T05:35:35.749Z,62710.92
2023-03-11T05:36:38.564Z,62716.08
2023-03-11T05:37:41.374Z,62723.03
2023-03-11T05:38:43.458Z,62723.57
2023-03-11T05:39:45.360Z,62730.78
2023-03-11T05:40:47.550Z,62736.08
2023-03-11T05:41:49.441Z,62740.98
2023-03-11T05:42:51.425Z,62742.75
2023-03-11T05:43:53.341Z,62745.46
2023-03-11T05:44:55.834Z,62753.91
2023-03-11T05:45:57.860Z,62764.25
2023-03-11T05:47:01.593Z,62764.25
2023-03-11T05:48:04.081Z,62759.21
2023-03-11T05:49:06.067Z,62768.75
2023-03-11T05:50:10.921Z,62784.95
2023-03-11T05:51:14.442Z,62777.04
2023-03-11T05:52:17.370Z,62787.27
2023-03-11T05:53:19.291Z,62800.32
2023-03-11T05:54:21.158Z,62800.46
2023-03-11T05:55:23.138Z,62815.57
2023-03-11T05:56:26.761Z,62810.55
2023-03-11T05:57:29.009Z,62810.66
2023-03-11T05:58:32.121Z,62810.66
2023-03-11T05:59:34.423Z,62821.85
2023-03-11T06:00:36.400Z,62812.44
2023-03-11T06:01:40.282Z,62815.15
2023-03-11T06:02:42.764Z,62813.54
2023-03-11T06:03:46.927Z,62808.07
2023-03-11T06:04:50.287Z,62811.34
2023-03-11T06:05:53.549Z,62815.15
2023-03-11T06:06:55.692Z,62808.63
2023-03-11T06:07:58.259Z,62808.91
2023-03-11T06:09:01.994Z,62807.39
2023-03-11T06:10:05.988Z,62815.31
2023-03-11T06:11:09.948Z,62809.17
2023-03-11T06:12:12.155Z,62817.20
2023-03-11T06:13:14.310Z,62814.36
2023-03-11T06:14:16.755Z,62816.53
2023-03-11T06:15:18.862Z,62816.53
2023-03-11T06:16:24.739Z,62815.03
2023-03-11T06:17:29.337Z,62820.34
2023-03-11T06:18:30.928Z,62821.43
2023-03-11T06:19:33.413Z,62818.72
2023-03-11T06:20:37.023Z,62822.79
2023-03-11T06:21:39.217Z,62821.43
2023-03-11T06:22:41.440Z,62821.29
2023-03-11T06:23:45.868Z,62819.52
2023-03-11T06:24:48.079Z,62830.96
2023-03-11T06:25:58.455Z,62837.90
2023-03-11T06:27:00.498Z,62832.17
2023-03-11T06:28:02.648Z,62840.77
2023-03-11T06:29:06.771Z,62840.77
2023-03-11T06:30:11.718Z,62850.44
2023-03-11T06:32:27.369Z,62868.41
2023-03-11T06:33:29.380Z,62858.06
2023-03-11T06:34:31.461Z,62857.64
2023-03-11T06:35:33.493Z,62861.33
2023-03-11T06:36:35.627Z,62860.23
2023-03-11T06:37:39.188Z,62856.68
2023-03-11T06:38:41.341Z,62861.21
2023-03-11T06:39:43.481Z,62859.16
2023-03-11T06:40:45.641Z,62859.83
2023-03-11T06:41:47.522Z,62871.01
2023-03-11T06:42:49.726Z,62867.20
2023-03-11T06:43:51.881Z,62869.51
2023-03-11T06:44:53.919Z,62870.46
2023-03-11T06:45:56.315Z,62870.46
2023-03-11T06:46:58.496Z,62877.13
2023-03-11T06:48:00.480Z,62872.10
2023-03-11T06:49:02.724Z,62880.68
2023-03-11T06:50:06.026Z,62881.36
2023-03-11T06:51:10.782Z,62878.22
2023-03-11T06:52:13.057Z,62890.21
2023-03-11T06:53:16.907Z,62896.89
2023-03-11T06:54:19.501Z,62899.07
2023-03-11T06:55:21.645Z,62906.15
2023-03-11T06:56:24.347Z,62908.21
2023-03-11T06:57:26.673Z,62912.70
2023-03-11T06:58:30.266Z,62920.87
2023-03-11T06:59:32.742Z,62925.79
2023-03-11T07:00:36.075Z,62927.00
2023-03-11T07:01:38.230Z,62931.77
2023-03-11T07:02:40.606Z,62944.98
2023-03-11T07:03:45.076Z,62951.41
2023-03-11T07:04:51.051Z,62958.50
2023-03-11T07:05:53.109Z,62960.67
2023-03-11T07:06:57.529Z,62967.22
2023-03-11T07:07:59.464Z,62972.96
2023-03-11T07:09:01.671Z,62974.17
2023-03-11T07:10:05.716Z,62988.23
2023-03-11T07:11:20.262Z,62998.59
2023-03-11T07:12:23.044Z,62993.39
2023-03-11T07:13:25.735Z,62997.09
2023-03-11T07:14:28.126Z,62993.39
2023-03-11T07:15:30.142Z,63002.68
2023-03-11T07:16:32.215Z,63016.05
2023-03-11T07:17:34.234Z,63003.76
2023-03-11T07:18:37.253Z,63005.28
2023-03-11T07:19:39.276Z,63004.18
2023-03-11T07:20:41.564Z,63009.23
2023-03-11T07:21:43.609Z,63002.68
2023-03-11T07:22:45.717Z,63005.82
2023-03-11T07:23:50.830Z,62997.77
2023-03-11T07:24:52.913Z,62998.44
2023-03-11T07:25:55.029Z,63002.68
2023-03-11T07:26:57.273Z,63003.76
2023-03-11T07:27:59.144Z,63005.39
2023-03-11T07:29:01.658Z,63010.59
2023-03-11T07:30:06.166Z,63007.03
2023-03-11T07:31:10.702Z,63011.41
2023-03-11T07:32:12.820Z,63014.12
2023-03-11T07:33:15.776Z,63009.23
2023-03-11T07:34:18.838Z,63009.63
2023-03-11T07:35:21.108Z,63015.09
2023-03-11T07:36:24.441Z,63019.46
2023-03-11T07:37:26.437Z,63022.20
2023-03-11T07:38:28.326Z,63021.64
2023-03-11T07:39:31.486Z,63019.32
2023-03-11T07:40:34.535Z,63020.13
2023-03-11T07:41:36.441Z,63016.86
2023-03-11T07:42:38.566Z,63016.03
2023-03-11T07:43:43.056Z,63012.08
2023-03-11T07:44:47.480Z,63016.86
2023-03-11T07:45:50.160Z,63022.31
2023-03-11T07:46:52.351Z,63022.60
2023-03-11T07:47:54.284Z,63015.76
2023-03-11T07:48:56.712Z,63012.75
2023-03-11T07:49:59.244Z,63018.25
2023-03-11T07:51:03.746Z,63014.68
2023-03-11T07:52:06.753Z,63017.96
2023-03-11T07:53:09.649Z,63009.88
2023-03-11T07:54:13.096Z,63021.23
2023-03-11T07:55:15.832Z,63027.76
2023-03-11T07:56:19.514Z,63022.31
2023-03-11T07:57:21.652Z,63021.23
2023-03-11T07:58:28.059Z,63021.89
2023-03-11T07:59:30.140Z,63013.16
2023-03-11T08:00:32.527Z,63013.04
2023-03-11T08:01:34.542Z,63014.68
2023-03-11T08:02:36.566Z,63009.23
2023-03-11T08:03:38.783Z,63020.56
2023-03-11T08:04:40.922Z,63018.50
2023-03-11T08:05:43.154Z,63010.56
2023-03-11T08:06:47.535Z,63017.82
2023-03-11T08:07:49.544Z,63013.58
2023-03-11T08:08:52.258Z,63014.01
2023-03-11T08:09:54.262Z,63004.43
2023-03-11T08:10:56.356Z,63005.39
2023-03-11T08:11:58.239Z,63012.91
2023-03-11T08:13:00.155Z,63003.76
2023-03-11T08:14:02.349Z,63006.63
2023-03-11T08:15:07.807Z,63007.17
2023-03-11T08:16:13.851Z,63015.51
2023-03-11T08:17:16.320Z,63008.80
2023-03-11T08:18:18.326Z,63015.51
2023-03-11T08:19:20.295Z,63014.68
2023-03-11T08:20:24.038Z,63016.32
2023-03-11T08:21:29.090Z,63018.79
2023-03-11T08:22:31.141Z,63011.41
2023-03-11T08:23:33.225Z,63012.37
2023-03-11T08:24:35.213Z,63019.59
2023-03-11T08:25:41.768Z,63027.09
2023-03-11T08:26:46.084Z,63017.96
2023-03-11T08:27:48.296Z,63019.59
2023-03-11T08:28:50.382Z,63021.10
2023-03-11T08:29:52.676Z,63006.50
2023-03-11T08:30:54.982Z,63017.28
2023-03-11T08:31:57.419Z,63012.48
2023-03-11T08:32:59.434Z,63020.56
2023-03-11T08:34:07.844Z,63004.57
2023-03-11T08:35:11.077Z,63015.36
2023-03-11T08:36:13.517Z,63014.68
2023-03-11T08:37:15.512Z,63011.52
2023-03-11T08:38:17.705Z,63024.37
2023-03-11T08:39:19.720Z,63009.23
2023-03-11T08:40:22.841Z,63008.80
2023-03-11T08:41:25.645Z,63009.34
2023-03-11T08:42:27.580Z,63014.68
2023-03-11T08:43:29.459Z,63005.28
2023-03-11T08:44:31.373Z,63003.22
2023-03-11T08:45:33.839Z,63008.55
2023-03-11T08:46:37.730Z,63004.18
2023-03-11T08:47:40.664Z,63010.05
2023-03-11T08:48:42.710Z,63001.58
2023-03-11T08:49:44.667Z,63005.01
2023-03-11T08:50:53.851Z,63005.28
2023-03-11T08:51:52.820Z,63007.32
2023-03-11T08:52:54.714Z,63011.95
2023-03-11T08:53:56.724Z,63002.25
2023-03-11T08:54:58.796Z,63002.39
2023-03-11T08:56:01.858Z,63007.59
2023-03-11T08:57:03.772Z,63010.31
2023-03-11T08:58:07.241Z,62998.02
2023-03-11T08:59:09.209Z,62995.59
2023-03-11T09:00:13.318Z,62992.86
2023-03-11T09:01:16.136Z,62995.59
2023-03-11T09:02:18.053Z,62990.68
2023-03-11T09:03:20.176Z,62980.32
2023-03-11T09:04:22.259Z,62981.93
2023-03-11T09:05:24.340Z,62979.76
2023-03-11T09:06:26.479Z,62980.61
2023-03-11T09:07:29.794Z,62977.33
2023-03-11T09:08:31.704Z,62978.68
2023-03-11T09:09:33.678Z,62973.21
2023-03-11T09:10:35.952Z,62981.82
2023-03-11T09:11:38.832Z,62983.57
2023-03-11T09:12:41.337Z,62983.57
2023-03-11T09:13:44.009Z,62977.16
2023-03-11T09:14:47.011Z,62983.03
2023-03-11T09:15:50.700Z,62984.13
2023-03-11T09:16:52.892Z,62977.04
2023-03-11T09:17:54.977Z,62978.79
2023-03-11T09:18:57.330Z,62980.32
2023-03-11T09:19:59.295Z,62979.76
2023-03-11T09:21:01.405Z,62977.58
2023-03-11T09:22:04.584Z,62983.46
2023-03-11T09:23:07.402Z,62977.58
2023-03-11T09:24:09.304Z,62978.25
2023-03-11T09:25:13.627Z,62981.39
2023-03-11T09:26:15.982Z,62981.39
2023-03-11T09:27:18.060Z,62985.63
2023-03-11T09:28:20.509Z,62979.76
2023-03-11T09:29:23.157Z,62988.48
2023-03-11T09:30:25.206Z,62980.01
2023-03-11T09:31:27.553Z,62993.68
2023-03-11T09:32:29.854Z,62985.21
2023-03-11T09:33:37.355Z,62990.12
2023-03-11T09:34:40.725Z,62993.68
2023-03-11T09:35:42.822Z,62992.18
2023-03-11T09:36:45.725Z,62989.58
2023-03-11T09:37:47.735Z,62990.68
2023-03-11T09:38:49.822Z,62993.68
2023-03-11T09:39:53.119Z,62996.96
2023-03-11T09:41:07.685Z,62984.80
2023-03-11T09:42:19.301Z,62990.68
2023-03-11T09:43:31.048Z,62995.99
2023-03-11T09:44:46.358Z,62993.95
2023-03-11T09:47:06.400Z,63004.18
2023-03-11T09:48:33.180Z,63002.41
2023-03-11T09:49:58.542Z,63004.05
2023-03-11T09:51:06.984Z,62996.55
2023-03-11T09:52:12.656Z,62990.79
2023-03-11T09:53:36.217Z,62991.89
2023-03-11T09:55:57.417Z,62992.57
2023-03-11T09:57:02.506Z,63001.33
2023-03-11T09:58:18.363Z,62992.43
2023-03-11T09:59:31.961Z,62998.19
2023-03-11T10:00:35.101Z,62992.32
2023-03-11T10:01:43.689Z,62999.81
2023-03-11T10:02:46.456Z,62993.95
2023-03-11T10:03:51.419Z,62999.27
2023-03-11T10:05:09.097Z,62997.21
2023-03-11T10:06:18.149Z,62992.72
2023-03-11T10:07:23.840Z,62990.79
2023-03-11T10:08:29.633Z,63003.64
2023-03-11T10:09:39.588Z,62997.21
2023-03-11T10:10:45.589Z,63001.16
2023-03-11T10:12:00.527Z,63004.61
2023-03-11T10:13:12.415Z,63001.58
2023-03-11T10:14:21.298Z,63009.63
2023-03-11T10:15:30.869Z,63010.73
2023-03-11T10:16:46.943Z,63002.12
2023-03-11T10:18:05.452Z,63010.31
2023-03-11T10:20:40.814Z,63005.39
2023-03-11T10:21:55.203Z,63004.86
2023-03-11T10:23:34.562Z,63001.16
2023-03-11T10:24:58.365Z,62996.67
2023-03-11T10:26:07.006Z,62995.71
2023-03-11T10:27:12.788Z,62986.55
2023-03-11T10:28:20.586Z,62999.27
2023-03-11T10:29:32.435Z,62990.25
2023-03-11T10:30:53.359Z,62993.95
2023-03-11T10:32:16.980Z,62999.81
2023-03-11T10:33:42.790Z,63001.04
2023-03-11T10:35:05.088Z,63000.23
2023-03-11T10:36:11.240Z,62987.12
2023-03-11T10:37:49.311Z,62992.86
2023-03-11T10:38:49.871Z,62996.13
2023-03-11T10:39:52.050Z,63004.61
2023-03-11T10:40:56.954Z,62998.30
2023-03-11T10:42:02.265Z,63003.08
2023-03-11T10:44:35.808Z,63006.36
2023-03-11T10:45:40.066Z,62999.41
2023-03-11T10:46:42.147Z,62999.95
2023-03-11T10:47:44.023Z,62997.21
2023-03-11T10:48:46.030Z,62994.49
2023-03-11T10:49:49.247Z,62992.99
2023-03-11T10:51:04.287Z,63000.48
2023-03-11T10:52:06.506Z,63000.23
2023-03-11T10:53:12.263Z,62995.03
2023-03-11T10:54:34.487Z,62990.39
2023-03-11T10:55:40.199Z,62990.25
2023-03-11T10:56:42.514Z,62998.84
2023-03-11T10:57:44.634Z,63002.41
2023-03-11T10:58:51.952Z,63000.91
2023-03-11T10:59:56.509Z,62997.34
2023-03-11T11:01:03.559Z,63000.91
2023-03-11T11:02:34.006Z,63012.66
2023-03-11T11:03:37.946Z,63000.91
2023-03-11T11:04:40.447Z,63000.91
2023-03-11T11:05:42.522Z,63009.63
2023-03-11T11:06:46.071Z,63002.68
2023-03-11T11:08:03.631Z,63002.68
2023-03-11T11:09:26.642Z,63002.68
2023-03-11T11:10:29.491Z,63008.00
2023-03-11T11:11:32.203Z,63006.36
2023-03-11T11:12:34.085Z,63007.03
2023-03-11T11:13:35.962Z,63010.84
2023-03-11T11:14:43.913Z,63009.77
2023-03-11T11:15:59.086Z,63016.72
2023-03-11T11:17:01.868Z,63009.23
2023-03-11T11:18:16.404Z,63013.45
2023-03-11T11:19:19.950Z,63019.32
2023-03-11T11:20:24.617Z,63016.43
2023-03-11T11:21:39.409Z,63021.64
2023-03-11T11:22:57.174Z,63026.55
2023-03-11T11:24:18.759Z,63023.52
2023-03-11T11:25:37.035Z,63022.56
2023-03-11T11:26:39.590Z,63031.04
2023-03-11T11:27:45.335Z,63030.50
2023-03-11T11:30:14.835Z,63036.51
2023-03-11T11:31:23.435Z,63029.40
2023-03-11T11:32:27.806Z,63040.33
2023-03-11T11:33:51.452Z,63041.71
2023-03-11T11:35:02.467Z,63042.37
2023-03-11T11:36:08.034Z,63039.77
2023-03-11T11:37:12.664Z,63047.96
2023-03-11T11:38:15.032Z,63039.23
2023-03-11T11:39:19.720Z,63047.96
2023-03-11T11:40:33.214Z,63046.45
2023-03-11T11:41:36.079Z,63055.05
2023-03-11T11:42:41.726Z,63051.77
2023-03-11T11:43:55.929Z,63058.89
2023-03-11T11:45:01.731Z,63059.43
2023-03-11T11:46:25.733Z,63059.43
2023-03-11T11:47:31.556Z,63065.30
2023-03-11T11:48:37.282Z,63065.30
2023-03-11T11:49:43.911Z,63063.24
2023-03-11T11:50:59.146Z,63066.09
2023-03-11T11:52:29.609Z,63060.10
2023-03-11T11:53:38.219Z,63064.88
2023-03-11T11:54:48.825Z,63074.04
2023-03-11T11:55:52.763Z,63076.64
2023-03-11T11:56:56.595Z,63079.92
2023-03-11T11:58:01.350Z,63078.82
2023-03-11T11:59:07.145Z,63078.82
2023-03-11T12:00:19.606Z,63083.73
2023-03-11T12:01:41.369Z,63083.73
2023-03-11T12:03:03.777Z,63079.09
2023-03-11T12:04:21.690Z,63082.91
2023-03-11T12:05:29.495Z,63076.48
2023-03-11T12:06:43.068Z,63082.91
2023-03-11T12:08:04.213Z,63076.35
2023-03-11T12:09:25.840Z,63085.91
2023-03-11T12:10:37.916Z,63075.81
2023-03-11T12:13:45.540Z,63090.83
2023-03-11T12:15:03.129Z,63088.90
2023-03-11T12:16:18.825Z,63091.10
2023-03-11T12:17:24.047Z,63105.58
2023-03-11T12:18:41.425Z,63094.63
2023-03-11T12:21:13.152Z,63100.91
2023-03-11T12:22:48.264Z,63101.34
2023-03-11T12:24:18.154Z,63100.91
2023-03-11T12:25:40.911Z,63104.07
2023-03-11T12:26:45.839Z,63102.68
2023-03-11T12:27:57.489Z,63098.44
2023-03-11T12:29:16.203Z,63109.00
2023-03-11T12:30:25.190Z,63101.59
2023-03-11T12:31:30.915Z,63105.00
2023-03-11T12:32:42.381Z,63105.00
2023-03-11T12:33:49.394Z,63114.02
2023-03-11T12:34:52.401Z,63108.81
2023-03-11T12:35:57.724Z,63107.71
2023-03-11T12:37:02.367Z,63112.39
2023-03-11T12:38:19.961Z,63112.93
2023-03-11T12:39:26.128Z,63116.09
2023-03-11T12:40:51.826Z,63121.41
2023-03-11T12:42:14.208Z,63114.56
2023-03-11T12:43:34.336Z,63120.04
2023-03-11T12:44:37.700Z,63120.04
2023-03-11T12:45:48.987Z,63116.20
2023-03-11T12:46:55.891Z,63115.80
2023-03-11T12:48:28.365Z,63120.04
2023-03-11T12:50:42.700Z,63129.18
2023-03-11T12:52:08.825Z,63115.91
2023-03-11T12:53:14.585Z,63122.89
2023-03-11T12:54:31.769Z,63129.32
2023-03-11T12:55:36.322Z,63124.94
2023-03-11T12:56:47.301Z,63130.15